Language: 


Des rapports , des résumés tant et plus, au choix de chacun....


Données statistiques de la station
Quotidien Rapport Février 24, 2017 Unités:  Anglais    Métrique   les deux
« Précédent Jour
Suivant Jour »
Quotidien Hebdomadaire Mensuel Annuel Actuel
  Haut: Bas: Moyen:
Température: 47.5 °F 31.8 °F 40.8 °F
Pt de rosée: 42.6 °F 29.5 °F 36 °F
Humidité: 96 % 69 % 83 %
Vitesse du vent: 11.4 mph 0 mph 3.4 mph
Rafales: 15.4 mph - -
Vent:- - West
Pression: 30.2 in 29.6 in -
Précipitation: 0.18 in    
Historical Graphs
 
 
Données statistiques pour Février 24, 2017
Heure Température Point de rosée Pression Vent Vitesse du vent Refales Humidité Pluie (taux horaire)
00:03 45 °F 35.2 °F 29.6 in North 2.9 mph 9.4 mph 69 % 0 in
00:08 45 °F 35.8 °F 29.7 in NW 8.1 mph 8.5 mph 70 % 0 in
00:13 45 °F 35.8 °F 29.7 in West 6.3 mph 8.5 mph 70 % 0 in
00:18 45 °F 35.8 °F 29.7 in West 6.3 mph 10.1 mph 70 % 0 in
00:23 45 °F 36 °F 29.7 in WNW 8.5 mph 10.1 mph 71 % 0 in
00:28 45 °F 35.8 °F 29.7 in WNW 3.6 mph 10.5 mph 70 % 0 in
00:33 44.8 °F 36 °F 29.7 in West 3.4 mph 12.8 mph 71 % 0 in
00:38 44.4 °F 35.8 °F 29.7 in North 7.6 mph 12.8 mph 71 % 0 in
00:42 44.2 °F 35.4 °F 29.7 in WNW 6.5 mph 10.1 mph 71 % 0 in
00:48 44.2 °F 35.4 °F 29.7 in West 7.6 mph 10.5 mph 71 % 0 in
00:53 44.2 °F 35.8 °F 29.7 in West 7.8 mph 10.5 mph 72 % 0 in
00:58 44.2 °F 36.1 °F 29.7 in North 3.8 mph 10.5 mph 73 % 0 in
01:03 44.2 °F 36.1 °F 29.7 in South 10.7 mph 12.3 mph 73 % 0 in
01:08 44.2 °F 36.1 °F 29.7 in WSW 6.3 mph 12.3 mph 73 % 0 in
01:13 44.2 °F 36.1 °F 29.7 in WNW 8.5 mph 13.2 mph 73 % 0 in
01:18 44.2 °F 36.1 °F 29.7 in WNW 7.8 mph 13.2 mph 73 % 0 in
01:23 44.1 °F 36 °F 29.7 in West 3.1 mph 13 mph 73 % 0 in
01:28 44.1 °F 36 °F 29.7 in West 6 mph 11 mph 73 % 0 in
01:33 44.1 °F 36.1 °F 29.7 in NNW 7.8 mph 10.5 mph 74 % 0 in
01:38 44.1 °F 36.1 °F 29.7 in West 8.9 mph 12.5 mph 74 % 0 in
01:43 44.1 °F 36.1 °F 29.7 in West 5.4 mph 12.5 mph 74 % 0 in
01:48 44.1 °F 36.1 °F 29.7 in West 4 mph 8.9 mph 74 % 0 in
01:53 43.9 °F 36.1 °F 29.7 in WNW 2.9 mph 8.5 mph 74 % 0 in
01:58 43.9 °F 36.1 °F 29.7 in West 2.9 mph 8.5 mph 74 % 0 in
02:03 43.5 °F 36 °F 29.7 in West 6.3 mph 8.5 mph 74 % 0 in
02:08 43.5 °F 36.1 °F 29.7 in WNW 6.5 mph 9.6 mph 75 % 0 in
02:13 43.5 °F 36.1 °F 29.7 in NW 5.4 mph 12.1 mph 75 % 0 in
02:18 43.5 °F 36.1 °F 29.7 in West 7.8 mph 12.1 mph 75 % 0 in
02:23 43.5 °F 36.1 °F 29.7 in West 10.1 mph 10.3 mph 75 % 0 in
02:28 43.5 °F 36.1 °F 29.7 in West 8.7 mph 11 mph 75 % 0 in
02:33 43.3 °F 36 °F 29.7 in WSW 6 mph 12.3 mph 75 % 0 in
02:38 43.2 °F 36.1 °F 29.7 in WSW 8.5 mph 13 mph 76 % 0 in
02:43 43 °F 36 °F 29.7 in West 8.7 mph 13 mph 76 % 0 in
02:48 42.8 °F 35.8 °F 29.7 in West 8.5 mph 14.8 mph 76 % 0 in
02:53 42.6 °F 35.4 °F 29.7 in West 6.7 mph 14.8 mph 76 % 0 in
02:58 42.4 °F 35.4 °F 29.7 in West 5.8 mph 12.5 mph 76 % 0 in
03:03 42.3 °F 35.4 °F 29.7 in WNW 4.3 mph 9.6 mph 77 % 0 in
03:08 42.3 °F 35.4 °F 29.8 in WNW 5.6 mph 9.2 mph 77 % 0 in
03:13 42.3 °F 35.4 °F 29.8 in NNW 3.6 mph 10.3 mph 77 % 0 in
03:18 42.3 °F 35.4 °F 29.8 in WNW 3.6 mph 10.3 mph 77 % 0 in
03:23 42.3 °F 35.4 °F 29.8 in West 6.5 mph 9.8 mph 77 % 0 in
03:28 42.3 °F 36 °F 29.8 in West 3.6 mph 8.5 mph 78 % 0 in
03:33 42.1 °F 35.8 °F 29.8 in NW 4.7 mph 8.1 mph 78 % 0 in
03:38 42.1 °F 35.8 °F 29.8 in NW 6 mph 7.4 mph 78 % 0 in
03:43 42.1 °F 36 °F 29.8 in West 3.4 mph 8.1 mph 79 % 0 in
03:48 41.9 °F 35.8 °F 29.8 in North 6.3 mph 8.5 mph 79 % 0 in
03:53 41.9 °F 35.8 °F 29.8 in WNW 5.8 mph 8.5 mph 79 % 0 in
03:58 41.9 °F 36.1 °F 29.8 in WNW 4.9 mph 9.8 mph 80 % 0 in
04:03 41.7 °F 36 °F 29.8 in WSW 6 mph 9.8 mph 80 % 0 in
04:08 41.5 °F 35.8 °F 29.8 in West 4 mph 7.4 mph 80 % 0 in
04:13 41.2 °F 35.4 °F 29.8 in NNW 4.7 mph 7.2 mph 80 % 0 in
04:18 41 °F 35.2 °F 29.8 in West 4.3 mph 8.1 mph 80 % 0 in
04:23 40.8 °F 35.4 °F 29.8 in West 2.9 mph 8.1 mph 81 % 0 in
04:28 40.8 °F 35.8 °F 29.8 in NW 5.4 mph 7.4 mph 82 % 0 in
04:33 41 °F 36 °F 29.8 in West 4.3 mph 9.6 mph 82 % 0 in
04:38 40.8 °F 35.8 °F 29.8 in WNW 5.6 mph 9.6 mph 82 % 0 in
04:43 40.8 °F 35.8 °F 29.8 in West 4 mph 9.4 mph 82 % 0 in
04:48 41 °F 36.1 °F 29.8 in West 5.4 mph 9.4 mph 83 % 0 in
04:53 41 °F 36.1 °F 29.8 in West 3.1 mph 7.2 mph 83 % 0 in
04:58 41 °F 36.1 °F 29.8 in WSW 5.6 mph 7.2 mph 83 % 0 in
05:03 41 °F 36.1 °F 29.8 in WSW 4 mph 8.1 mph 83 % 0 in
05:08 41.2 °F 36.7 °F 29.8 in SW 4.9 mph 8.1 mph 84 % 0 in
05:13 41.2 °F 36.7 °F 29.8 in WSW 6 mph 7.4 mph 84 % 0 in
05:18 41 °F 36.5 °F 29.8 in West 4.9 mph 8.1 mph 84 % 0 in
05:23 41 °F 36.9 °F 29.8 in WSW 7.6 mph 9.8 mph 85 % 0 in
05:28 41 °F 36.9 °F 29.8 in West 7.4 mph 9.8 mph 85 % 0 in
05:33 41 °F 36.9 °F 29.8 in WNW 7.6 mph 9.6 mph 85 % 0 in
05:38 40.8 °F 37 °F 29.8 in WSW 9.8 mph 9.8 mph 86 % 0 in
05:43 40.8 °F 37 °F 29.8 in WSW 9.8 mph 9.8 mph 86 % 0 in
05:48 40.5 °F 36.7 °F 29.8 in West 5.6 mph 9.8 mph 86 % 0 in
05:53 40.5 °F 36.7 °F 29.8 in West 6 mph 9.8 mph 86 % 0 in
05:58 40.3 °F 36.3 °F 29.8 in WNW 2.9 mph 7.8 mph 86 % 0 in
06:03 40.1 °F 36.3 °F 29.8 in West 3.4 mph 7.2 mph 86 % 0 in
06:08 40.1 °F 36.3 °F 29.8 in WNW 4.3 mph 6.3 mph 86 % 0 in
06:13 40.3 °F 36.7 °F 29.8 in West 3.6 mph 7.2 mph 87 % 0 in
06:18 40.5 °F 36.9 °F 29.8 in West 4.3 mph 7.2 mph 87 % 0 in
06:23 40.6 °F 37 °F 29.9 in West 4.9 mph 8.1 mph 87 % 0 in
06:28 40.6 °F 37.4 °F 29.9 in WSW 6.3 mph 8.1 mph 88 % 0 in
06:33 40.8 °F 37.2 °F 29.9 in WSW 8.1 mph 8.1 mph 87 % 0 in
06:38 40.8 °F 37.2 °F 29.9 in West 3.6 mph 8.1 mph 87 % 0 in
06:43 41 °F 37.4 °F 29.9 in West 2.7 mph 7.8 mph 87 % 0 in
06:48 40.8 °F 37.2 °F 29.9 in West 3.4 mph 7.8 mph 87 % 0 in
06:53 40.6 °F 37 °F 29.9 in West 3.1 mph 8.5 mph 87 % 0 in
06:58 40.5 °F 36.9 °F 29.9 in WNW 3.6 mph 8.5 mph 87 % 0 in
07:03 40.5 °F 36.9 °F 29.9 in West 3.6 mph 7.4 mph 87 % 0 in
07:08 40.3 °F 36.7 °F 29.9 in Calm   7.2 mph 87 % 0 in
07:13 40.5 °F 36.9 °F 29.9 in WNW 2.9 mph 7.2 mph 87 % 0 in
07:18 40.5 °F 36.9 °F 29.9 in West 4 mph 5.6 mph 87 % 0 in
07:23 40.5 °F 37.2 °F 29.9 in West 5.6 mph 6.3 mph 88 % 0 in
07:26 40.5 °F 37.2 °F 29.9 in WNW 4.3 mph 6.3 mph 88 % 0 in
07:31 40.5 °F 37.2 °F 29.9 in West 4.3 mph 6.5 mph 88 % 0 in
07:36 40.6 °F 37.4 °F 29.9 in WNW 4 mph 6.7 mph 88 % 0 in
07:41 40.6 °F 37.4 °F 29.9 in West 2.5 mph 6.7 mph 88 % 0 in
07:46 40.8 °F 37.6 °F 29.9 in WNW 3.4 mph 6 mph 88 % 0 in
07:51 40.8 °F 37.6 °F 29.9 in West 2.9 mph 6.5 mph 88 % 0 in
07:56 41 °F 37.8 °F 29.9 in WNW 5.6 mph 6.5 mph 88 % 0 in
08:01 41 °F 37.8 °F 29.9 in West 3.6 mph 6.5 mph 88 % 0 in
08:06 41.2 °F 37.9 °F 29.9 in NW 4 mph 6.5 mph 88 % 0 in
08:11 41.2 °F 37.9 °F 29.9 in WNW 3.6 mph 7.2 mph 88 % 0 in
08:16 41.4 °F 38.1 °F 29.9 in NNE 2.2 mph 7.2 mph 88 % 0 in
08:21 41.4 °F 38.1 °F 29.9 in WNW 4.3 mph 7.2 mph 88 % 0 in
08:26 41.4 °F 38.1 °F 29.9 in NNW 5.6 mph 6 mph 88 % 0 in
08:31 41.4 °F 38.1 °F 29.9 in West 3.6 mph 6.3 mph 88 % 0 in
08:36 41.5 °F 38.1 °F 29.9 in North 2.9 mph 7.2 mph 88 % 0 in
08:41 41.4 °F 37.8 °F 29.9 in WNW 3.1 mph 8.5 mph 87 % 0 in
08:46 41.4 °F 37.8 °F 29.9 in WNW 6.5 mph 8.5 mph 87 % 0 in
08:51 41.4 °F 37.8 °F 29.9 in WNW 5.4 mph 7.6 mph 87 % 0 in
08:56 41.5 °F 37.9 °F 29.9 in WNW 6.3 mph 7.6 mph 87 % 0 in
09:01 41.5 °F 37.9 °F 29.9 in WNW 6.3 mph 6.3 mph 87 % 0 in
09:06 41.7 °F 38.1 °F 29.9 in WSW 2.7 mph 6.3 mph 87 % 0 in
09:11 41.9 °F 38.3 °F 29.9 in West 4.3 mph 6.5 mph 87 % 0 in
09:16 42.1 °F 38.8 °F 29.9 in WNW 4.9 mph 6.5 mph 88 % 0 in
09:21 42.3 °F 38.8 °F 29.9 in WSW 5.4 mph 8.7 mph 88 % 0 in
09:26 42.3 °F 38.8 °F 29.9 in West 3.1 mph 8.7 mph 88 % 0 in
09:31 42.1 °F 38.8 °F 29.9 in West 5.8 mph 8.7 mph 88 % 0 in
09:36 41.5 °F 37.9 °F 29.9 in West 11.4 mph 11.4 mph 87 % 0 in
09:41 41.2 °F 37.9 °F 29.9 in Calm   11.4 mph 88 % 0 in
09:46 40.8 °F 37.6 °F 29.9 in NE 4 mph 11.4 mph 88 % 0 in
09:51 40.1 °F 36.9 °F 29.9 in NNW 2.9 mph 6.5 mph 88 % 0 in
09:56 40.1 °F 36.9 °F 29.9 in North 3.8 mph 5.6 mph 88 % 0.01 in
10:01 39.7 °F 36.5 °F 29.9 in North 3.6 mph 4.9 mph 88 % 0.01 in
10:06 39.6 °F 36.7 °F 29.9 in NE 3.4 mph 4.7 mph 89 % 0.01 in
10:11 39.6 °F 36.7 °F 29.9 in NNE 3.1 mph 4 mph 89 % 0.01 in
10:16 39.6 °F 36.9 °F 29.9 in NNE 3.1 mph 4.3 mph 90 % 0.02 in
10:21 39.7 °F 37.2 °F 29.9 in North 2.7 mph 4.3 mph 91 % 0.02 in
10:26 40.1 °F 37.9 °F 29.9 in Calm   3.4 mph 92 % 0.02 in
10:31 40.1 °F 38.3 °F 29.9 in Calm   2.7 mph 93 % 0.02 in
10:36 40.3 °F 38.5 °F 29.9 in Calm   2.7 mph 93 % 0.02 in
10:41 40.5 °F 38.7 °F 29.9 in Calm   1.1 mph 93 % 0.02 in
10:46 40.5 °F 38.7 °F 29.9 in NE 3.1 mph 3.6 mph 93 % 0.02 in
10:51 40.5 °F 38.7 °F 29.9 in NE 4.3 mph 4.3 mph 93 % 0.02 in
10:56 40.6 °F 38.8 °F 29.9 in Calm   4.3 mph 93 % 0.01 in
11:01 40.5 °F 38.7 °F 29.9 in East 2.7 mph 4.3 mph 93 % 0.01 in
11:06 40.5 °F 38.7 °F 29.9 in ENE 1.6 mph 4.7 mph 93 % 0.01 in
11:11 40.6 °F 38.8 °F 30 in East 2 mph 4.7 mph 93 % 0.01 in
11:16 40.5 °F 38.8 °F 30 in West 2.9 mph 6.3 mph 94 % 0.01 in
11:21 40.5 °F 38.7 °F 30 in NW 5.4 mph 6.5 mph 93 % 0.01 in
11:26 40.1 °F 38.3 °F 30 in North 7.6 mph 9.8 mph 93 % 0.02 in
11:31 39.9 °F 38.5 °F 30 in WNW 9.6 mph 10.5 mph 94 % 0.03 in
11:36 39.7 °F 38.1 °F 30 in NNW 4.9 mph 10.5 mph 94 % 0.06 in
11:41 39.6 °F 37.9 °F 30 in NNE 2.5 mph 10.5 mph 94 % 0.08 in
11:46 39.6 °F 37.9 °F 30 in NNW 5.6 mph 10.5 mph 94 % 0.09 in
11:51 39.4 °F 37.8 °F 30 in North 6.3 mph 8.7 mph 94 % 0.11 in
11:56 39.6 °F 37.9 °F 30 in NNW 3.6 mph 10.1 mph 94 % 0.11 in
12:01 39.7 °F 38.5 °F 30 in NW 3.4 mph 10.1 mph 95 % 0.12 in
12:06 40.3 °F 39.2 °F 30 in Calm   6.9 mph 96 % 0.14 in
12:11 40.6 °F 39.6 °F 30 in NNW 1.3 mph 5.8 mph 96 % 0.14 in
12:16 41.5 °F 40.5 °F 30 in North 2.5 mph 4 mph 96 % 0.12 in
12:21 41.7 °F 40.6 °F 30 in NNW 6.5 mph 7.6 mph 96 % 0.12 in
12:26 41.7 °F 40.6 °F 29.9 in North 6 mph 9.6 mph 96 % 0.13 in
12:31 41.9 °F 40.8 °F 29.9 in NW 4.3 mph 9.6 mph 96 % 0.12 in
12:36 42.1 °F 40.6 °F 29.9 in Calm   6.3 mph 95 % 0.09 in
12:41 42.6 °F 41.4 °F 30 in West 1.1 mph 4.3 mph 95 % 0.07 in
12:46 43.2 °F 42.1 °F 30 in West 2.9 mph 5.4 mph 96 % 0.06 in
12:51 43.5 °F 42.4 °F 30 in NW 3.4 mph 7.2 mph 96 % 0.05 in
12:56 43.5 °F 42.3 °F 30 in NW 1.3 mph 7.2 mph 95 % 0.05 in
13:01 43.5 °F 42.3 °F 30 in West 2.5 mph 5.6 mph 95 % 0.04 in
13:06 43.5 °F 42.3 °F 30 in North 6 mph 6.3 mph 95 % 0.03 in
13:11 43.5 °F 42.1 °F 30 in NW 2.7 mph 9.8 mph 94 % 0.03 in
13:16 43.5 °F 42.1 °F 30 in NNW 2.9 mph 9.8 mph 94 % 0.03 in
13:21 43.5 °F 41.5 °F 30 in NNW 4.3 mph 8.1 mph 93 % 0.03 in
13:26 43.5 °F 41.5 °F 30 in North 5.6 mph 8.1 mph 93 % 0.01 in
13:31 43.5 °F 41.7 °F 30 in West 1.1 mph 7.8 mph 93 % 0.01 in
13:36 44.1 °F 42.1 °F 30 in North 3.8 mph 7.8 mph 93 % 0.01 in
13:41 44.1 °F 42.1 °F 30 in NNE 3.6 mph 7.8 mph 93 % 0.01 in
13:46 44.2 °F 42.3 °F 30 in NW 3.1 mph 6.3 mph 92 % 0.01 in
13:51 44.8 °F 42.4 °F 30 in East 3.1 mph 6.3 mph 92 % 0 in
13:56 45 °F 42.4 °F 30 in NNW 4.3 mph 8.1 mph 91 % 0 in
14:01 45.3 °F 42.6 °F 30 in WNW 2.5 mph 8.1 mph 90 % 0 in
14:06 45.1 °F 42.3 °F 30 in NNE 3.6 mph 7.8 mph 89 % 0 in
14:11 45 °F 41.5 °F 30 in WNW 5.8 mph 7.2 mph 88 % 0 in
14:16 44.4 °F 40.3 °F 30 in WNW 4 mph 11 mph 85 % 0 in
14:21 45.3 °F 41.5 °F 30 in West 7.2 mph 11 mph 86 % 0 in
14:26 45.3 °F 41.2 °F 30 in NNW 3.8 mph 10.5 mph 85 % 0 in
14:31 45.1 °F 40.3 °F 30 in North 7.4 mph 12.5 mph 83 % 0 in
14:36 45 °F 39.4 °F 30 in NW 5.4 mph 12.5 mph 81 % 0 in
14:41 45 °F 39.4 °F 30 in North 6.5 mph 12.3 mph 81 % 0 in
14:46 46 °F 40.3 °F 30 in North 4 mph 15.4 mph 80 % 0 in
14:51 46.8 °F 40.3 °F 30 in North 3.4 mph 15.4 mph 78 % 0 in
14:56 47.5 °F 41.7 °F 30 in North 3.1 mph 12.1 mph 80 % 0 in
15:01 46.6 °F 39.6 °F 30 in North 7.6 mph 7.8 mph 76 % 0 in
15:06 46 °F 39 °F 30 in NNW 4 mph 7.8 mph 76 % 0 in
15:11 45.9 °F 38.3 °F 30 in NNW 7.6 mph 10.5 mph 75 % 0 in
15:16 45.3 °F 37.9 °F 30 in NNW 4 mph 10.5 mph 75 % 0 in
15:21 45.3 °F 37.9 °F 30 in NW 5.6 mph 8.5 mph 75 % 0 in
15:26 45.9 °F 38.3 °F 30 in WNW 2.7 mph 8.5 mph 75 % 0 in
15:31 47.1 °F 39.6 °F 30 in East 0.9 mph 8.5 mph 75 % 0 in
15:36 46.9 °F 38.8 °F 30 in NNW 4 mph 8.5 mph 73 % 0 in
15:41 46.2 °F 37.8 °F 30 in West 4.3 mph 8.7 mph 72 % 0 in
15:46 45.9 °F 37.6 °F 30 in WNW 4 mph 8.7 mph 73 % 0 in
15:51 45.7 °F 37.4 °F 30 in Calm   7.2 mph 73 % 0 in
15:56 45.1 °F 37 °F 30 in North 3.6 mph 10.1 mph 73 % 0 in
16:01 45.9 °F 37.8 °F 30 in North 3.8 mph 10.1 mph 73 % 0 in
16:06 46.2 °F 37.8 °F 30 in NNW 3.8 mph 9.6 mph 72 % 0 in
16:07 46.2 °F 37.8 °F 30 in WNW 2.9 mph 9.6 mph 72 % 0 in
16:12 46.9 °F 38.1 °F 30 in NNW 3.1 mph 9.6 mph 71 % 0 in
16:17 46.2 °F 36.7 °F 30 in North 5.6 mph 8.5 mph 69 % 0 in
16:22 45.7 °F 36 °F 30 in NW 5.8 mph 8.5 mph 69 % 0 in
16:27 45.3 °F 36.1 °F 30 in Calm   7.6 mph 70 % 0 in
16:32 45.1 °F 36 °F 30 in North 4.5 mph 7.4 mph 70 % 0 in
16:37 45 °F 35.8 °F 30 in WNW 2.7 mph 7.4 mph 70 % 0 in
16:42 44.4 °F 35.8 °F 30 in NNW 2 mph 6.3 mph 71 % 0 in
16:47 44.4 °F 36.1 °F 30 in NNW 6 mph 6.3 mph 72 % 0 in
16:52 44.2 °F 36 °F 30 in Calm   6 mph 72 % 0 in
16:57 44.2 °F 36.1 °F 30 in NNW 4.3 mph 5.4 mph 73 % 0 in
17:02 44.2 °F 35.8 °F 30 in Calm   6.3 mph 72 % 0 in
17:07 44.2 °F 35.8 °F 30.1 in West 2.7 mph 6.3 mph 72 % 0 in
17:12 44.1 °F 35.4 °F 30.1 in WSW 3.4 mph 5.8 mph 72 % 0 in
17:17 44.2 °F 35.4 °F 30.1 in NNW 0.9 mph 6 mph 71 % 0 in
17:22 44.2 °F 35.4 °F 30.1 in NNW 4 mph 6.9 mph 71 % 0 in
17:27 44.2 °F 35.4 °F 30.1 in West 2.5 mph 6.9 mph 71 % 0 in
17:32 44.2 °F 35.2 °F 30.1 in North 3.1 mph 5.4 mph 70 % 0 in
17:37 44.2 °F 35.4 °F 30.1 in WNW 2.2 mph 3.8 mph 71 % 0 in
17:42 44.2 °F 35.4 °F 30.1 in WNW 1.6 mph 3.8 mph 71 % 0 in
17:47 44.2 °F 35.1 °F 30.1 in NNW 2.9 mph 6 mph 70 % 0 in
17:52 44.2 °F 35.2 °F 30.1 in Calm   7.6 mph 70 % 0 in
17:57 44.1 °F 34.9 °F 30.1 in NNW 3.1 mph 7.6 mph 70 % 0 in
18:02 43.5 °F 34.3 °F 30.1 in WNW 3.8 mph 6.5 mph 70 % 0 in
18:07 43.2 °F 34 °F 30.1 in Calm   6.5 mph 70 % 0 in
18:12 42.8 °F 33.6 °F 30.1 in WNW 3.6 mph 4 mph 70 % 0 in
18:17 42.4 °F 33.6 °F 30.1 in Calm   4 mph 71 % 0 in
18:22 42.1 °F 33.3 °F 30.1 in Calm   4 mph 71 % 0 in
18:27 41.7 °F 33.1 °F 30.1 in Calm   4 mph 71 % 0 in
18:32 41.4 °F 33.1 °F 30.1 in Calm   3.4 mph 72 % 0 in
18:37 41.2 °F 32.7 °F 30.1 in Calm   3.4 mph 72 % 0 in
18:42 40.8 °F 32.5 °F 30.1 in Calm   3.4 mph 72 % 0 in
18:47 40.5 °F 32.5 °F 30.1 in Calm   1.1 mph 73 % 0 in
18:52 39.9 °F 32 °F 30.1 in Calm   1.1 mph 73 % 0 in
18:57 39.6 °F 31.6 °F 30.1 in Calm     73 % 0 in
19:02 39.2 °F 31.3 °F 30.1 in Calm     73 % 0 in
19:07 38.7 °F 31.1 °F 30.1 in Calm     74 % 0 in
19:12 38.5 °F 31.3 °F 30.1 in Calm     75 % 0 in
19:17 38.1 °F 31.3 °F 30.1 in Calm     76 % 0 in
19:22 37.8 °F 30.9 °F 30.1 in Calm     76 % 0 in
19:27 37.2 °F 30.4 °F 30.1 in Calm     76 % 0 in
19:32 36.9 °F 30.4 °F 30.1 in Calm     77 % 0 in
19:37 36.3 °F 30.2 °F 30.1 in Calm     78 % 0 in
19:42 36.1 °F 29.8 °F 30.1 in Calm     78 % 0 in
19:47 35.8 °F 29.5 °F 30.1 in Calm     78 % 0 in
19:52 35.4 °F 29.7 °F 30.1 in Calm     79 % 0 in
19:57 35.4 °F 29.8 °F 30.1 in Calm     80 % 0 in
20:02 35.2 °F 29.8 °F 30.1 in Calm     81 % 0 in
20:07 35.2 °F 30.2 °F 30.1 in Calm     82 % 0 in
20:12 34.9 °F 30.2 °F 30.1 in Calm     83 % 0 in
20:17 35.1 °F 30.4 °F 30.1 in Calm     83 % 0 in
20:22 35.1 °F 30.7 °F 30.1 in Calm     84 % 0 in
20:27 34.9 °F 30.7 °F 30.1 in Calm   2.5 mph 85 % 0 in
20:32 34.5 °F 30.4 °F 30.1 in Calm   2.5 mph 85 % 0 in
20:37 34.3 °F 30.4 °F 30.1 in Calm     85 % 0 in
20:42 34.2 °F 30 °F 30.1 in Calm     85 % 0 in
20:47 34 °F 29.8 °F 30.1 in Calm     85 % 0 in
20:52 33.8 °F 30 °F 30.1 in Calm     86 % 0 in
20:57 33.6 °F 29.8 °F 30.1 in Calm     86 % 0 in
21:02 33.6 °F 30 °F 30.1 in Calm   1.1 mph 87 % 0 in
21:07 33.6 °F 30.4 °F 30.1 in Calm   1.1 mph 88 % 0 in
21:12 33.6 °F 30.4 °F 30.1 in Calm   1.1 mph 88 % 0 in
21:17 33.4 °F 30.2 °F 30.1 in Calm     88 % 0 in
21:22 33.3 °F 30 °F 30.1 in Calm     88 % 0 in
21:27 33.1 °F 29.8 °F 30.1 in Calm     88 % 0 in
21:32 33.1 °F 29.8 °F 30.1 in Calm     88 % 0 in
21:37 32.7 °F 29.5 °F 30.2 in Calm     88 % 0 in
21:42 32.7 °F 29.8 °F 30.2 in Calm     89 % 0 in
21:47 32.7 °F 29.8 °F 30.2 in Calm     89 % 0 in
21:52 32.5 °F 29.7 °F 30.1 in Calm     89 % 0 in
21:57 32.5 °F 29.7 °F 30.1 in Calm     89 % 0 in
22:02 32.7 °F 30 °F 30.1 in Calm   2 mph 90 % 0 in
22:07 32.7 °F 30 °F 30.1 in WSW 2.5 mph 2.7 mph 90 % 0 in
22:12 32.7 °F 30 °F 30.1 in West 2.9 mph 4 mph 90 % 0 in
22:17 33.1 °F 30.7 °F 30.1 in Calm   4 mph 91 % 0 in
22:22 33.3 °F 30.9 °F 30.1 in Calm   3.4 mph 91 % 0 in
22:27 33.3 °F 31.3 °F 30.1 in Calm   1.1 mph 92 % 0 in
22:32 33.1 °F 30.7 °F 30.1 in Calm   1.1 mph 91 % 0 in
22:37 32.7 °F 30.4 °F 30.2 in Calm     91 % 0 in
22:42 32.5 °F 30.2 °F 30.2 in Calm     91 % 0 in
22:47 32.5 °F 30.2 °F 30.2 in Calm     91 % 0 in
22:52 32.5 °F 30.2 °F 30.2 in Calm     91 % 0 in
22:57 32.5 °F 30.6 °F 30.2 in Calm   3.6 mph 92 % 0 in
23:02 32.5 °F 30.6 °F 30.2 in Calm   3.6 mph 92 % 0 in
23:07 32.5 °F 30.6 °F 30.2 in Calm   3.6 mph 92 % 0 in
23:12 32.5 °F 30.7 °F 30.2 in Calm   1.1 mph 93 % 0 in
23:17 32.5 °F 30.7 °F 30.2 in Calm     93 % 0 in
23:22 32.4 °F 30.6 °F 30.2 in Calm     93 % 0 in
23:27 32.2 °F 30.4 °F 30.2 in Calm     93 % 0 in
23:32 32.2 °F 30.4 °F 30.2 in Calm     93 % 0 in
23:37 32.2 °F 30.4 °F 30.2 in Calm     93 % 0 in
23:42 32.2 °F 30.6 °F 30.2 in Calm     94 % 0 in
23:47 32 °F 30.6 °F 30.2 in Calm     94 % 0 in
23:52 31.8 °F 30.4 °F 30.2 in Calm   2.7 mph 94 % 0 in
23:57 32.2 °F 30.6 °F 30.2 in SSW 3.4 mph 3.4 mph 94 % 0 in
Le Gheer Warneton
Courtoisie de Weather Underground - 2.25 mb

Mise a jour : 17-12-17 03:09:23
Généré par Cumulus 1.9.4 (1099)